Weather

Currently

Time Weather Temperature Precipitation Clouds Wind Wind Bumps Pressure
06:10 9,6 °C 9,3 °C 0,0 mm/h 95 % 0,3 m/s 1014,9 mb

Current values recorded by the weather station installed in the spa park. Data updated at 6:10.


Forecast

Time Weather Temperature Precipitation Clouds Wind Wind Bumps Pressure
03:00 9,5 °C 0 mm/h 2 % 1,5 m/s 2,4 m/s 1026 hPa
04:00 8,9 °C 0 mm/h 5 % 1,6 m/s 2,4 m/s 1026 hPa
05:00 8,3 °C 0 mm/h 11 % 1,5 m/s 2,4 m/s 1026 hPa
06:00 8 °C 0 mm/h 7 % 1,6 m/s 2,4 m/s 1026 hPa
07:00 9,2 °C 0 mm/h 4 % 1,2 m/s 2,4 m/s 1026 hPa
08:00 11,6 °C 0 mm/h 2 % 1,5 m/s 3,6 m/s 1026 hPa
09:00 13,8 °C 0 mm/h 3 % 2,2 m/s 5,4 m/s 1026 hPa
10:00 15,9 °C 0 mm/h 5 % 2,6 m/s 6,2 m/s 1025 hPa
11:00 18 °C 0 mm/h 12 % 2,7 m/s 6,7 m/s 1025 hPa
12:00 19,7 °C 0 mm/h 2 % 2,7 m/s 6,9 m/s 1024 hPa
13:00 21,3 °C 0 mm/h 3 % 2,3 m/s 6,7 m/s 1024 hPa
14:00 23,1 °C 0 mm/h 11 % 2,4 m/s 5,7 m/s 1023 hPa
15:00 23,8 °C 0 mm/h 26 % 1,8 m/s 6,3 m/s 1022 hPa
16:00 24,9 °C 0 mm/h 31 % 1,9 m/s 4,9 m/s 1022 hPa
17:00 25,5 °C 0 mm/h 35 % 2,7 m/s 6,6 m/s 1021 hPa
18:00 25,4 °C 0 mm/h 49 % 2,5 m/s 6,2 m/s 1021 hPa
19:00 24,4 °C 0 mm/h 60 % 2,1 m/s 5,8 m/s 1021 hPa
20:00 22,1 °C 0 mm/h 59 % 1,9 m/s 4,4 m/s 1021 hPa
21:00 19,6 °C 0 mm/h 55 % 1 m/s 3,5 m/s 1021 hPa
22:00 17,9 °C 0 mm/h 52 % 1 m/s 1,6 m/s 1021 hPa
23:00 16,7 °C 0 mm/h 84 % 0,2 m/s 1,4 m/s 1022 hPa

Forecast data of ČHMÚ (Czech hydrometeorological institute) based on Aladin numerical model for Konstantinovy Lázně area. The data is updated daily at 6:00.

Time Weather Temperature Precipitation Clouds Wind Wind Bumps Pressure
00:00 16,4 °C 0 mm/h 82 % 1,9 m/s 2,7 m/s 1022 hPa
01:00 17 °C 0 mm/h 83 % 2,3 m/s 6,8 m/s 1022 hPa
02:00 17,1 °C 0 mm/h 69 % 2,4 m/s 4,6 m/s 1022 hPa
03:00 17,7 °C 0 mm/h 83 % 2,5 m/s 5,4 m/s 1022 hPa
04:00 16,9 °C 0 mm/h 20 % 2,1 m/s 4,7 m/s 1022 hPa
05:00 15,9 °C 0 mm/h 2 % 1,6 m/s 3,8 m/s 1022 hPa
06:00 15,2 °C 0 mm/h 4 % 0,7 m/s 2,5 m/s 1022 hPa
07:00 16,5 °C 0 mm/h 29 % 1 m/s 1,5 m/s 1023 hPa
08:00 19 °C 0 mm/h 40 % 1,1 m/s 2,7 m/s 1023 hPa
09:00 21,4 °C 0 mm/h 28 % 2,1 m/s 5,1 m/s 1023 hPa
10:00 23,8 °C 0 mm/h 8 % 3 m/s 7 m/s 1023 hPa
11:00 25,6 °C 0 mm/h 10 % 3,8 m/s 8,9 m/s 1022 hPa
12:00 27,1 °C 0 mm/h 18 % 4,3 m/s 9,9 m/s 1021 hPa
13:00 28,3 °C 0 mm/h 19 % 4,5 m/s 10,6 m/s 1021 hPa
14:00 29,2 °C 0 mm/h 54 % 5 m/s 11,7 m/s 1020 hPa
15:00 28,8 °C 0 mm/h 88 % 5,2 m/s 15,1 m/s 1019 hPa
16:00 29,4 °C 0,01 mm/h 48 % 5 m/s 11 m/s 1018 hPa
17:00 29,7 °C 0 mm/h 54 % 3,9 m/s 12,1 m/s 1017 hPa
18:00 29,3 °C 0 mm/h 45 % 4 m/s 10,1 m/s 1016 hPa
19:00 28,1 °C 0 mm/h 22 % 4,4 m/s 9,9 m/s 1015 hPa
20:00 26,5 °C 0 mm/h 2 % 3,9 m/s 9,7 m/s 1015 hPa
21:00 25,5 °C 0 mm/h 100 % 6,9 m/s 15,4 m/s 1018 hPa
22:00 21,1 °C 0,11 mm/h 100 % 4,3 m/s 28,8 m/s 1016 hPa
23:00 20,3 °C 0 mm/h 87 % 3 m/s 9,2 m/s 1016 hPa

Forecast data of ČHMÚ (Czech hydrometeorological institute) based on Aladin numerical model for Konstantinovy Lázně area. The data is updated daily at 6:00.